Time;durP1;ratioP1;P1;durP2;ratioP2;P2;SDS_P1;SDS_P2;PMS_P1;PMS_P2;Temp;Humidity;BMP_temperature;BMP_pressure;BME280_temperature;BME280_humidity;BME280_pressure;Samples;Min_cycle;Max_cycle;Signal;HPM_P1;HPM_P2
2022/11/23 00:00:35;;;;;;;41.90;31.73;;;7.20;99.90;;;;;;5077560;28;20489;-72
2022/11/23 00:03:00;;;;;;;55.17;37.35;;;7.20;99.90;;;;;;5080545;28;20044;-72
2022/11/23 00:05:27;;;;;;;49.80;32.03;;;7.30;99.90;;;;;;5076202;28;20040;-72
2022/11/23 00:07:53;;;;;;;53.72;34.75;;;7.20;99.90;;;;;;5061680;28;20051;-72
2022/11/23 00:10:19;;;;;;;57.90;35.85;;;7.30;99.90;;;;;;5074057;28;20049;-72
2022/11/23 00:12:45;;;;;;;54.35;34.70;;;7.30;99.90;;;;;;5065347;28;20612;-73
2022/11/23 00:15:13;;;;;;;48.70;33.13;;;7.30;99.90;;;;;;5070938;28;20044;-72
2022/11/23 00:17:38;;;;;;;54.80;34.28;;;7.30;99.90;;;;;;5072043;28;20048;-72
2022/11/23 00:20:06;;;;;;;46.35;31.30;;;7.30;99.90;;;;;;5071757;28;20094;-72
2022/11/23 00:22:31;;;;;;;58.05;34.90;;;7.40;99.90;;;;;;5069069;28;20056;-72
2022/11/23 00:24:57;;;;;;;50.00;32.65;;;7.30;99.90;;;;;;5075151;28;20044;-72
2022/11/23 00:27:23;;;;;;;49.03;33.92;;;7.30;99.90;;;;;;5079724;28;20049;-72
2022/11/23 00:29:48;;;;;;;46.75;33.28;;;7.30;99.90;;;;;;5069062;28;20048;-72
2022/11/23 00:32:14;;;;;;;50.30;32.90;;;7.30;99.90;;;;;;5070610;28;20111;-72
2022/11/23 00:34:40;;;;;;;53.60;33.22;;;7.40;99.90;;;;;;5069621;28;20052;-72
2022/11/23 00:37:05;;;;;;;43.25;30.95;;;7.40;99.90;;;;;;5070895;28;20041;-73
2022/11/23 00:39:31;;;;;;;49.40;32.80;;;7.40;99.90;;;;;;5070254;28;20056;-72
2022/11/23 00:41:57;;;;;;;48.17;31.27;;;7.40;99.90;;;;;;5065518;28;20038;-72
2022/11/23 00:44:22;;;;;;;43.75;29.65;;;7.40;99.90;;;;;;5068897;28;20045;-72
2022/11/23 00:46:48;;;;;;;48.00;33.25;;;7.40;99.90;;;;;;5067463;28;20044;-72
2022/11/23 00:49:13;;;;;;;49.97;32.88;;;7.40;99.90;;;;;;5069513;28;20058;-72
2022/11/23 00:51:40;;;;;;;44.97;28.48;;;7.50;99.90;;;;;;5068578;28;20052;-72
2022/11/23 00:54:06;;;;;;;52.13;31.67;;;7.50;99.90;;;;;;5069480;28;20049;-72
2022/11/23 00:56:34;;;;;;;48.30;30.95;;;7.40;99.90;;;;;;5069361;28;20047;-72
2022/11/23 00:59:01;;;;;;;57.13;32.15;;;7.40;99.90;;;;;;5065907;28;20983;-72
2022/11/23 01:01:32;;;;;;;44.42;29.00;;;7.40;99.90;;;;;;5068736;28;20052;-72
2022/11/23 01:04:00;;;;;;;48.15;31.20;;;7.50;99.90;;;;;;5069282;28;20040;-72
2022/11/23 01:06:28;;;;;;;52.00;30.20;;;7.50;99.90;;;;;;5067175;28;20045;-72
2022/11/23 01:09:17;;;;;;;56.03;33.25;;;7.50;99.90;;;;;;5068399;28;20570;-72
2022/11/23 01:11:43;;;;;;;45.63;30.52;;;7.50;99.90;;;;;;5068257;28;20880;-72
2022/11/23 01:14:09;;;;;;;47.10;28.17;;;7.50;99.90;;;;;;5067659;28;20044;-72
2022/11/23 01:16:37;;;;;;;40.05;29.42;;;7.50;99.90;;;;;;5067261;28;20409;-72
2022/11/23 01:19:06;;;;;;;42.35;29.42;;;7.50;99.90;;;;;;5069187;28;20044;-71
2022/11/23 01:21:32;;;;;;;;;;;7.50;99.90;;;;;;5070145;28;20044;-72
2022/11/23 01:23:57;;;;;;;45.50;31.55;;;7.50;99.90;;;;;;5061358;28;21610;-72
2022/11/23 01:26:24;;;;;;;50.83;28.65;;;7.50;99.90;;;;;;5061527;28;20044;-72
2022/11/23 01:28:51;;;;;;;45.22;29.58;;;7.50;99.90;;;;;;5068215;28;20669;-71
2022/11/23 01:31:19;;;;;;;42.63;28.83;;;7.50;99.90;;;;;;5067716;28;20040;-72
2022/11/23 01:33:45;;;;;;;;;;;7.50;99.90;;;;;;5068913;28;20071;-72
2022/11/23 01:36:15;;;;;;;40.67;29.98;;;7.50;99.90;;;;;;5065036;28;20385;-72
2022/11/23 01:38:42;;;;;;;48.85;30.65;;;7.50;99.90;;;;;;5068102;28;20048;-72
2022/11/23 01:41:10;;;;;;;38.35;28.80;;;7.50;99.90;;;;;;5065402;28;20120;-72
2022/11/23 01:43:36;;;;;;;44.70;28.40;;;7.50;99.90;;;;;;5062736;28;20095;-72
2022/11/23 01:46:02;;;;;;;38.58;28.38;;;7.50;99.90;;;;;;5063045;28;20055;-72
2022/11/23 01:48:51;;;;;;;39.63;27.83;;;7.60;99.90;;;;;;5067936;28;20040;-72
2022/11/23 01:51:21;;;;;;;42.35;28.92;;;7.50;99.90;;;;;;5058335;28;20053;-72
2022/11/23 01:53:51;;;;;;;39.60;28.88;;;7.60;99.90;;;;;;5063010;28;20429;-72
2022/11/23 01:56:23;;;;;;;45.75;27.15;;;7.50;99.90;;;;;;5067351;28;20127;-71
2022/11/23 01:58:52;;;;;;;42.05;27.58;;;7.60;99.90;;;;;;5068696;28;20053;-71
2022/11/23 02:01:18;;;;;;;43.33;27.48;;;7.60;99.90;;;;;;5064448;28;20055;-71
2022/11/23 02:03:46;;;;;;;41.50;26.58;;;7.60;99.90;;;;;;5075294;28;20044;-71
2022/11/23 02:06:20;;;;;;;38.38;25.75;;;7.60;99.90;;;;;;5071363;28;20036;-72
2022/11/23 02:08:47;;;;;;;32.08;24.50;;;7.60;99.90;;;;;;5067124;28;20048;-72
2022/11/23 02:11:14;;;;;;;43.92;26.13;;;7.60;99.90;;;;;;5080032;28;20913;-71
2022/11/23 02:13:43;;;;;;;44.97;26.88;;;7.60;99.90;;;;;;5080913;28;20435;-71
2022/11/23 02:16:11;;;;;;;34.90;25.08;;;7.60;99.90;;;;;;5080231;28;20459;-71
2022/11/23 02:18:41;;;;;;;49.22;25.85;;;7.60;99.90;;;;;;5082865;28;20090;-71
2022/11/23 02:21:07;;;;;;;38.63;27.25;;;7.70;99.90;;;;;;5071692;28;20054;-71
2022/11/23 02:23:33;;;;;;;41.38;26.30;;;7.70;99.90;;;;;;5066569;28;20056;-72
2022/11/23 02:26:13;;;;;;;39.72;26.17;;;7.60;99.90;;;;;;5077700;28;20044;-72
2022/11/23 02:29:08;;;;;;;35.10;23.27;;;7.70;99.90;;;;;;5067732;28;20060;-72
2022/11/23 02:31:34;;;;;;;37.42;24.75;;;7.70;99.90;;;;;;5066495;28;20048;-71
2022/11/23 02:33:59;;;;;;;39.58;25.92;;;7.70;99.90;;;;;;5068017;28;20047;-71
2022/11/23 02:36:37;;;;;;;36.55;23.88;;;7.70;99.90;;;;;;5067715;28;20032;-72
2022/11/23 02:39:29;;;;;;;36.25;21.30;;;7.70;99.90;;;;;;5057242;28;20060;-72
2022/11/23 02:41:56;;;;;;;39.13;24.98;;;7.70;99.90;;;;;;5068666;28;20044;-72
2022/11/23 02:44:48;;;;;;;34.38;24.00;;;7.80;99.90;;;;;;5066264;28;20055;-72
2022/11/23 02:47:15;;;;;;;31.42;23.48;;;7.70;99.90;;;;;;5060917;28;20052;-72
2022/11/23 02:49:44;;;;;;;40.78;24.35;;;7.70;99.90;;;;;;5060571;28;20090;-72
2022/11/23 02:52:10;;;;;;;39.85;26.23;;;7.80;99.90;;;;;;5065257;28;20052;-72
2022/11/23 02:54:35;;;;;;;43.13;24.80;;;7.70;99.90;;;;;;5064447;28;20130;-72
2022/11/23 02:57:01;;;;;;;38.65;23.05;;;7.80;99.90;;;;;;5067497;28;20052;-72
2022/11/23 02:59:31;;;;;;;44.97;24.15;;;7.70;99.90;;;;;;5057075;28;20048;-72
2022/11/23 03:01:57;;;;;;;37.20;24.52;;;7.70;99.90;;;;;;5066805;28;20553;-72
2022/11/23 03:04:23;;;;;;;37.22;23.08;;;7.70;99.90;;;;;;5065303;28;20482;-72
2022/11/23 03:06:48;;;;;;;56.08;26.77;;;7.80;99.90;;;;;;5063190;28;20131;-72
2022/11/23 03:09:15;;;;;;;28.77;21.08;;;7.80;99.90;;;;;;5066417;28;20509;-72
2022/11/23 03:11:40;;;;;;;35.95;24.52;;;7.80;99.90;;;;;;5065031;28;20040;-72
2022/11/23 03:14:06;;;;;;;33.72;22.70;;;7.80;99.90;;;;;;5065780;28;20055;-72
2022/11/23 03:16:34;;;;;;;34.47;22.60;;;7.80;99.90;;;;;;5065325;28;20045;-72
2022/11/23 03:19:00;;;;;;;;;;;7.80;99.90;;;;;;5065953;28;20040;-72
2022/11/23 03:21:26;;;;;;;37.65;22.63;;;7.80;99.90;;;;;;5067666;28;19927;-72
2022/11/23 03:23:52;;;;;;;40.55;24.05;;;7.80;99.90;;;;;;5068607;28;20044;-72
2022/11/23 03:26:17;;;;;;;36.13;22.75;;;7.80;99.90;;;;;;5069861;28;20134;-72
2022/11/23 03:28:43;;;;;;;38.63;22.85;;;7.80;99.90;;;;;;5065592;28;20052;-72
2022/11/23 03:31:09;;;;;;;45.80;24.05;;;7.80;99.90;;;;;;5070084;28;20045;-72
2022/11/23 03:33:34;;;;;;;33.05;22.42;;;7.80;99.90;;;;;;5070302;28;20053;-72
2022/11/23 03:36:00;;;;;;;44.90;23.75;;;7.80;99.90;;;;;;5081647;28;20051;-72
2022/11/23 03:38:26;;;;;;;42.50;24.42;;;7.90;99.90;;;;;;5073255;28;20076;-72
2022/11/23 03:40:52;;;;;;;36.80;22.58;;;7.80;99.90;;;;;;5069572;28;20420;-72
2022/11/23 03:43:18;;;;;;;39.08;23.27;;;7.80;99.90;;;;;;5069767;28;20102;-72
2022/11/23 03:45:44;;;;;;;40.40;23.80;;;7.90;99.90;;;;;;5068881;28;20044;-72
2022/11/23 03:48:10;;;;;;;39.47;22.70;;;7.90;99.90;;;;;;5069763;28;20040;-72
2022/11/23 03:50:35;;;;;;;38.42;24.80;;;7.90;99.90;;;;;;5069199;28;20048;-72
2022/11/23 03:53:01;;;;;;;44.95;24.52;;;7.90;99.90;;;;;;5069170;28;20044;-72
2022/11/23 03:55:27;;;;;;;39.72;23.88;;;7.90;99.90;;;;;;5069593;28;20086;-72
2022/11/23 03:57:54;;;;;;;49.25;24.73;;;7.80;99.90;;;;;;5069991;28;20048;-72
2022/11/23 04:00:20;;;;;;;40.88;24.48;;;7.90;99.90;;;;;;5069396;28;20917;-71
2022/11/23 04:02:46;;;;;;;43.85;25.10;;;7.90;99.90;;;;;;5066193;28;20883;-72
2022/11/23 04:05:12;;;;;;;44.28;25.98;;;7.90;99.90;;;;;;5064357;28;20052;-72
2022/11/23 04:07:38;;;;;;;48.40;23.98;;;7.90;99.90;;;;;;5052920;28;20048;-72
2022/11/23 04:10:04;;;;;;;55.20;27.50;;;7.90;99.90;;;;;;5070666;28;20041;-72
2022/11/23 04:12:30;;;;;;;41.40;26.27;;;7.90;99.90;;;;;;5069305;28;20056;-72
2022/11/23 04:14:55;;;;;;;47.45;26.48;;;7.90;99.90;;;;;;5068905;28;20040;-72
2022/11/23 04:17:21;;;;;;;46.85;27.33;;;7.90;99.90;;;;;;5065846;28;20041;-72
2022/11/23 04:19:46;;;;;;;54.45;28.70;;;7.90;99.90;;;;;;5068052;28;20053;-72
2022/11/23 04:22:12;;;;;;;47.50;27.13;;;7.90;99.90;;;;;;5064340;28;20128;-72
2022/11/23 04:24:38;;;;;;;54.00;28.23;;;7.90;99.90;;;;;;5066894;28;20056;-72
2022/11/23 04:27:03;;;;;;;52.95;29.50;;;7.90;99.90;;;;;;5055193;28;20049;-71
2022/11/23 04:29:29;;;;;;;50.35;27.92;;;7.90;99.90;;;;;;5075654;28;20113;-71
2022/11/23 04:31:55;;;;;;;52.55;29.42;;;7.90;99.90;;;;;;5062096;28;20041;-72
2022/11/23 04:34:20;;;;;;;54.95;29.00;;;8.00;99.90;;;;;;5064468;28;20040;-72
2022/11/23 04:36:46;;;;;;;61.17;30.67;;;7.90;99.90;;;;;;5069791;28;20056;-72
2022/11/23 04:39:12;;;;;;;56.25;29.95;;;7.90;99.90;;;;;;5066506;28;20117;-72
2022/11/23 04:41:38;;;;;;;58.17;29.63;;;8.00;99.90;;;;;;5070101;28;20044;-72
2022/11/23 04:44:04;;;;;;;50.58;30.20;;;8.00;99.90;;;;;;5068279;28;20063;-72
2022/11/23 04:46:30;;;;;;;69.13;32.38;;;8.00;99.90;;;;;;5068885;28;20119;-72
2022/11/23 04:48:56;;;;;;;55.17;29.50;;;8.00;99.90;;;;;;5065829;28;20731;-73
2022/11/23 04:51:22;;;;;;;58.83;30.00;;;8.00;99.90;;;;;;5077061;28;20039;-72
2022/11/23 04:53:48;;;;;;;54.78;29.52;;;8.00;99.90;;;;;;5073203;28;20429;-72
2022/11/23 04:56:13;;;;;;;63.20;31.48;;;8.00;99.90;;;;;;5057888;28;20037;-73
2022/11/23 04:58:41;;;;;;;61.30;30.75;;;8.00;99.90;;;;;;5053156;28;20044;-73
2022/11/23 05:01:06;;;;;;;60.38;30.23;;;7.90;99.90;;;;;;5078771;28;20036;-73
2022/11/23 05:03:33;;;;;;;62.10;32.75;;;8.00;99.90;;;;;;5074733;28;20075;-73
2022/11/23 05:06:00;;;;;;;59.88;33.15;;;8.00;99.90;;;;;;5068586;28;20052;-72
2022/11/23 05:08:26;;;;;;;56.30;30.52;;;8.00;99.90;;;;;;5069907;28;20800;-72
2022/11/23 05:10:52;;;;;;;59.20;29.17;;;7.90;99.90;;;;;;5074571;28;20110;-73
2022/11/23 05:13:17;;;;;;;56.30;29.77;;;7.90;99.90;;;;;;5069605;28;20052;-72
2022/11/23 05:15:43;;;;;;;54.08;31.83;;;7.90;99.90;;;;;;5063015;28;20775;-73
2022/11/23 05:18:10;;;;;;;52.13;29.52;;;7.90;99.90;;;;;;5072837;28;20044;-72
2022/11/23 05:20:37;;;;;;;64.15;32.33;;;7.90;99.90;;;;;;5073642;28;20057;-73
2022/11/23 05:23:03;;;;;;;53.22;29.48;;;7.90;99.90;;;;;;5074735;28;20087;-73
2022/11/23 05:25:28;;;;;;;53.13;29.65;;;7.90;99.90;;;;;;5075404;28;20524;-73
2022/11/23 05:27:54;;;;;;;45.63;28.23;;;7.90;99.90;;;;;;5069656;28;20052;-74
2022/11/23 05:30:20;;;;;;;55.33;29.10;;;7.90;99.90;;;;;;5072096;28;20125;-74
2022/11/23 05:32:46;;;;;;;51.60;28.15;;;7.90;99.90;;;;;;5073132;28;20048;-74
2022/11/23 05:35:11;;;;;;;65.95;30.83;;;7.90;99.90;;;;;;5075275;28;20032;-74
2022/11/23 05:37:37;;;;;;;54.63;28.73;;;7.90;99.90;;;;;;5061024;28;20451;-74
2022/11/23 05:40:07;;;;;;;54.90;29.17;;;8.00;99.90;;;;;;5064311;28;20041;-74
2022/11/23 05:42:33;;;;;;;53.70;29.15;;;7.90;99.90;;;;;;5056479;28;20052;-74
2022/11/23 05:44:59;;;;;;;61.42;27.65;;;7.90;99.90;;;;;;5061417;28;20106;-74
2022/11/23 05:47:26;;;;;;;53.78;24.90;;;7.90;99.90;;;;;;5062697;28;20098;-74
2022/11/23 05:49:51;;;;;;;41.97;24.60;;;7.90;99.90;;;;;;5080232;28;20167;-74
2022/11/23 05:52:17;;;;;;;53.05;24.05;;;7.90;99.90;;;;;;5074841;28;20500;-74
2022/11/23 05:54:43;;;;;;;38.33;23.73;;;7.90;99.90;;;;;;5069582;28;20541;-73
2022/11/23 05:57:09;;;;;;;41.90;24.75;;;7.90;99.90;;;;;;5067539;28;20048;-74
2022/11/23 05:59:35;;;;;;;40.30;22.27;;;7.80;99.90;;;;;;5068182;28;20571;-73
2022/11/23 06:02:00;;;;;;;47.97;25.10;;;7.80;99.90;;;;;;5060716;28;20041;-73
2022/11/23 06:04:26;;;;;;;44.63;21.58;;;7.80;99.90;;;;;;5070511;28;20401;-73
2022/11/23 06:06:57;;;;;;;48.63;23.10;;;7.80;99.90;;;;;;5068158;28;20147;-73
2022/11/23 06:09:23;;;;;;;45.22;23.15;;;7.80;99.90;;;;;;5064784;28;20044;-73
2022/11/23 06:11:49;;;;;;;46.03;23.52;;;7.80;99.90;;;;;;5072398;28;20053;-73
2022/11/23 06:14:15;;;;;;;40.30;21.73;;;7.80;99.90;;;;;;5073377;28;20067;-73
2022/11/23 06:16:40;;;;;;;41.65;21.50;;;7.70;99.90;;;;;;5059282;28;20045;-73
2022/11/23 06:19:06;;;;;;;40.03;21.52;;;7.70;99.90;;;;;;5068563;28;20047;-73
2022/11/23 06:21:31;;;;;;;36.38;19.45;;;7.70;99.90;;;;;;5067514;28;20561;-73
2022/11/23 06:23:57;;;;;;;36.30;19.98;;;7.70;99.90;;;;;;5072911;28;20492;-73
2022/11/23 06:26:24;;;;;;;32.17;19.50;;;7.70;99.90;;;;;;5077818;28;20119;-73
2022/11/23 06:28:50;;;;;;;41.78;18.58;;;7.60;99.90;;;;;;5075536;28;20515;-73
2022/11/23 06:31:15;;;;;;;34.25;18.77;;;7.70;99.90;;;;;;5068221;28;20052;-73
2022/11/23 06:33:42;;;;;;;38.72;19.20;;;7.60;99.90;;;;;;5065394;28;20052;-73
2022/11/23 06:36:09;;;;;;;35.42;17.80;;;7.60;99.90;;;;;;5073814;28;20045;-73
2022/11/23 06:38:35;;;;;;;34.58;18.17;;;7.60;99.90;;;;;;5054721;28;20132;-73
2022/11/23 06:41:02;;;;;;;42.63;19.27;;;7.60;99.90;;;;;;5068388;28;20177;-73
2022/11/23 06:43:28;;;;;;;32.45;18.17;;;7.60;99.90;;;;;;5067929;28;20056;-73
2022/11/23 06:45:55;;;;;;;39.42;17.15;;;7.60;99.90;;;;;;5058963;28;20059;-73
2022/11/23 06:48:21;;;;;;;44.97;16.83;;;7.60;99.90;;;;;;5070874;28;20122;-72
2022/11/23 06:50:47;;;;;;;37.55;16.95;;;7.50;99.90;;;;;;5064330;28;20128;-73
2022/11/23 06:53:13;;;;;;;29.67;14.75;;;7.50;99.90;;;;;;5073776;28;20449;-72
2022/11/23 06:55:39;;;;;;;31.92;15.55;;;7.50;99.90;;;;;;5063481;28;20434;-72
2022/11/23 06:58:05;;;;;;;29.55;15.88;;;7.50;99.90;;;;;;5069117;28;20041;-72
2022/11/23 07:00:31;;;;;;;35.40;15.70;;;7.40;99.90;;;;;;5062431;28;20049;-72
2022/11/23 07:02:59;;;;;;;38.00;16.20;;;7.40;99.90;;;;;;5061628;28;20110;-72
2022/11/23 07:05:25;;;;;;;30.70;15.05;;;7.40;99.90;;;;;;5067071;28;20370;-72
2022/11/23 07:07:51;;;;;;;42.75;15.65;;;7.30;99.90;;;;;;5080285;28;20173;-72
2022/11/23 07:10:17;;;;;;;38.35;15.93;;;7.30;99.90;;;;;;5064612;28;20131;-72
2022/11/23 07:12:43;;;;;;;38.00;15.73;;;7.30;99.90;;;;;;5072922;28;20090;-72
2022/11/23 07:15:09;;;;;;;34.17;15.93;;;7.30;99.90;;;;;;5059407;28;20162;-73
2022/11/23 07:17:43;;;;;;;41.30;18.58;;;7.30;99.90;;;;;;5072660;28;20089;-73
2022/11/23 07:20:10;;;;;;;37.22;17.40;;;7.30;99.90;;;;;;5071781;28;20040;-73
2022/11/23 07:22:36;;;;;;;37.83;15.68;;;7.20;99.90;;;;;;5067392;28;20082;-73
2022/11/23 07:25:04;;;;;;;30.48;15.90;;;7.20;99.90;;;;;;5065991;28;20041;-73
2022/11/23 07:27:30;;;;;;;35.45;15.63;;;7.20;99.90;;;;;;5051603;28;20060;-73
2022/11/23 07:29:56;;;;;;;37.63;17.20;;;7.20;99.90;;;;;;5074609;28;20040;-73
2022/11/23 07:32:21;;;;;;;26.55;15.90;;;7.20;99.90;;;;;;5070157;28;20753;-73
2022/11/23 07:34:47;;;;;;;29.30;15.32;;;7.20;99.90;;;;;;5058782;28;20047;-73
2022/11/23 07:37:12;;;;;;;36.25;14.30;;;7.20;99.90;;;;;;5073383;28;20695;-74
2022/11/23 07:39:38;;;;;;;32.33;13.25;;;7.20;99.90;;;;;;5061330;28;20052;-73
2022/11/23 07:42:05;;;;;;;33.85;14.75;;;7.20;99.90;;;;;;5064864;28;20113;-73
2022/11/23 07:44:30;;;;;;;27.65;12.73;;;7.20;99.90;;;;;;5066488;28;20072;-73
2022/11/23 07:46:56;;;;;;;36.92;15.63;;;7.30;99.90;;;;;;5062212;28;20501;-73
2022/11/23 07:49:22;;;;;;;22.90;12.85;;;7.30;99.90;;;;;;5052821;28;20045;-74
2022/11/23 07:51:47;;;;;;;31.48;14.68;;;7.30;99.90;;;;;;5074110;28;20081;-73
2022/11/23 07:54:13;;;;;;;27.98;13.45;;;7.30;99.90;;;;;;5075831;28;20040;-73
2022/11/23 07:56:38;;;;;;;21.98;13.35;;;7.30;99.90;;;;;;5069742;28;20464;-73
2022/11/23 07:59:05;;;;;;;34.70;14.57;;;7.30;99.90;;;;;;5071123;28;20068;-73
2022/11/23 08:01:30;;;;;;;29.33;15.25;;;7.40;99.90;;;;;;5070425;28;20082;-74
2022/11/23 08:03:56;;;;;;;31.77;13.93;;;7.40;99.90;;;;;;5075616;28;20044;-73
2022/11/23 08:06:22;;;;;;;28.45;13.40;;;7.40;99.90;;;;;;5063015;28;20045;-73
2022/11/23 08:08:49;;;;;;;46.38;15.85;;;7.50;99.90;;;;;;5061791;28;20056;-74
2022/11/23 08:11:17;;;;;;;37.30;16.00;;;7.40;99.90;;;;;;5060156;28;20119;-74
2022/11/23 08:13:43;;;;;;;31.48;14.43;;;7.50;99.90;;;;;;5056812;28;20048;-73
2022/11/23 08:16:09;;;;;;;33.28;14.35;;;7.50;99.90;;;;;;5064731;28;20067;-74
2022/11/23 08:18:34;;;;;;;34.17;14.05;;;7.50;99.90;;;;;;5063068;28;20452;-72
2022/11/23 08:21:00;;;;;;;28.38;14.35;;;7.50;99.90;;;;;;5069154;28;20814;-71
2022/11/23 08:23:26;;;;;;;33.15;14.82;;;7.60;99.90;;;;;;5058537;28;20561;-72
2022/11/23 08:25:52;;;;;;;32.20;15.20;;;7.60;99.90;;;;;;5079236;28;20119;-72
2022/11/23 08:28:18;;;;;;;28.90;14.88;;;7.60;99.90;;;;;;5081287;28;20063;-72
2022/11/23 08:30:47;;;;;;;30.55;13.80;;;7.60;99.90;;;;;;5076599;28;20559;-72
2022/11/23 08:33:13;;;;;;;33.67;14.40;;;7.60;99.90;;;;;;5072780;28;20045;-72
2022/11/23 08:35:40;;;;;;;32.60;16.13;;;7.60;99.90;;;;;;5072127;28;20051;-72
2022/11/23 08:38:08;;;;;;;29.83;13.75;;;7.60;99.90;;;;;;5064204;28;20059;-72
2022/11/23 08:40:35;;;;;;;32.95;14.80;;;7.70;99.90;;;;;;5068919;28;20478;-72
2022/11/23 08:43:01;;;;;;;27.48;11.95;;;7.70;99.90;;;;;;5069025;28;20059;-71
2022/11/23 08:45:26;;;;;;;24.85;13.52;;;7.70;99.90;;;;;;5069949;28;20163;-72
2022/11/23 08:47:52;;;;;;;32.70;14.68;;;7.70;99.90;;;;;;5069705;28;20148;-72
2022/11/23 08:50:20;;;;;;;28.75;15.02;;;7.70;99.90;;;;;;5068154;28;20084;-72
2022/11/23 08:52:45;;;;;;;41.78;15.68;;;7.80;99.90;;;;;;5068516;28;20049;-72
2022/11/23 08:55:11;;;;;;;45.97;18.33;;;7.80;99.90;;;;;;5067174;28;20417;-72
2022/11/23 08:57:37;;;;;;;29.13;12.95;;;7.80;99.90;;;;;;5068505;28;20094;-71
2022/11/23 09:00:04;;;;;;;46.22;15.60;;;7.80;99.90;;;;;;5069875;28;20075;-71
2022/11/23 09:02:30;;;;;;;37.63;14.25;;;7.80;99.90;;;;;;5068516;28;20120;-71
2022/11/23 09:04:56;;;;;;;40.70;13.55;;;7.90;99.90;;;;;;5067890;28;20135;-71
2022/11/23 09:07:21;;;;;;;32.40;14.98;;;7.90;99.90;;;;;;5069599;28;20052;-71
2022/11/23 09:09:47;;;;;;;22.50;12.80;;;7.90;99.90;;;;;;5069735;28;20520;-71
2022/11/23 09:12:12;;;;;;;30.30;13.93;;;8.00;99.90;;;;;;5067272;28;20044;-71
2022/11/23 09:14:38;;;;;;;33.10;13.98;;;8.00;99.90;;;;;;5068242;28;20044;-71
2022/11/23 09:17:04;;;;;;;35.33;14.27;;;8.00;99.90;;;;;;5070053;28;20072;-71
2022/11/23 09:19:29;;;;;;;27.92;13.10;;;8.00;99.90;;;;;;5067543;28;20052;-71
2022/11/23 09:21:56;;;;;;;35.42;13.88;;;8.10;99.90;;;;;;5050857;28;20102;-71
2022/11/23 09:24:22;;;;;;;34.85;12.75;;;8.10;99.90;;;;;;5069051;28;20088;-71
2022/11/23 09:26:48;;;;;;;29.13;14.15;;;8.10;99.90;;;;;;5069276;28;20464;-71
2022/11/23 09:29:13;;;;;;;30.60;14.90;;;8.20;99.90;;;;;;5068638;28;20052;-70
2022/11/23 09:31:39;;;;;;;27.75;12.57;;;8.20;99.90;;;;;;5065293;28;20391;-70
2022/11/23 09:34:05;;;;;;;27.00;12.18;;;8.20;99.90;;;;;;5059975;28;20055;-71
2022/11/23 09:36:30;;;;;;;27.05;11.05;;;8.30;99.90;;;;;;5082278;28;20440;-70
2022/11/23 09:38:56;;;;;;;28.55;10.57;;;8.30;99.90;;;;;;5069424;28;20361;-70
2022/11/23 09:41:28;;;;;;;28.33;11.80;;;8.40;99.90;;;;;;5067788;28;20098;-70
2022/11/23 09:44:13;;;;;;;28.63;11.65;;;8.40;99.90;;;;;;5067520;28;20131;-70
2022/11/23 09:47:00;;;;;;;25.73;10.77;;;8.40;99.90;;;;;;5068225;28;20436;-70
2022/11/23 09:49:38;;;;;;;24.40;9.35;;;8.40;99.90;;;;;;5068252;28;20043;-71
2022/11/23 09:52:14;;;;;;;25.48;10.13;;;8.50;99.90;;;;;;5067858;28;20616;-70
2022/11/23 09:54:42;;;;;;;23.98;10.05;;;8.50;99.90;;;;;;5067149;28;20056;-70
2022/11/23 09:57:13;;;;;;;33.05;9.75;;;8.50;99.90;;;;;;5068656;28;20166;-70
2022/11/23 09:59:42;;;;;;;35.67;11.32;;;8.50;99.90;;;;;;5067497;28;20127;-70
2022/11/23 10:02:22;;;;;;;38.38;10.32;;;8.50;99.90;;;;;;5066963;28;20048;-70
2022/11/23 10:04:49;;;;;;;30.27;10.73;;;8.60;99.90;;;;;;5068331;28;20056;-70
2022/11/23 10:07:39;;;;;;;36.63;11.55;;;8.50;99.90;;;;;;5068145;28;20055;-70
2022/11/23 10:10:12;;;;;;;34.42;11.43;;;8.50;99.90;;;;;;5068334;28;20087;-69
2022/11/23 10:12:53;;;;;;;28.10;9.95;;;8.60;99.90;;;;;;5055592;28;20078;-69
2022/11/23 10:15:51;;;;;;;21.42;10.23;;;8.60;99.90;;;;;;5066275;28;20079;-70
2022/11/23 10:18:43;;;;;;;28.77;9.82;;;8.60;99.90;;;;;;5060535;28;20063;-70
2022/11/23 10:21:39;;;;;;;25.73;8.23;;;8.60;99.90;;;;;;5063348;28;20622;-69
2022/11/23 10:24:19;;;;;;;24.73;11.07;;;8.60;99.90;;;;;;5066105;28;20048;-69
2022/11/23 10:26:48;;;;;;;35.20;10.02;;;8.60;99.90;;;;;;5067004;28;20116;-70
2022/11/23 10:29:31;;;;;;;35.15;9.98;;;8.60;99.90;;;;;;5067791;28;20048;-70
2022/11/23 10:31:58;;;;;;;39.83;9.90;;;8.60;99.90;;;;;;5065654;28;20136;-70
2022/11/23 10:34:29;;;;;;;35.90;10.05;;;8.60;99.90;;;;;;5067815;28;20037;-70
2022/11/23 10:36:55;;;;;;;24.13;9.25;;;8.60;99.90;;;;;;5061436;28;20501;-70
2022/11/23 10:39:26;;;;;;;27.83;9.15;;;8.60;99.90;;;;;;5067205;28;20047;-70
2022/11/23 10:41:59;;;;;;;26.23;8.35;;;8.60;99.90;;;;;;5067991;28;20052;-70
2022/11/23 10:44:38;;;;;;;23.83;8.98;;;8.60;99.90;;;;;;5067696;28;20125;-70
2022/11/23 10:47:04;;;;;;;23.27;8.63;;;8.60;99.90;;;;;;5068197;28;20044;-69
2022/11/23 10:49:32;;;;;;;15.02;7.85;;;8.60;99.90;;;;;;5049599;28;20178;-70
2022/11/23 10:52:04;;;;;;;28.00;9.77;;;8.60;99.90;;;;;;5067350;28;20553;-70
2022/11/23 10:54:53;;;;;;;31.83;8.15;;;8.60;99.90;;;;;;5060668;28;20056;-70
2022/11/23 10:57:35;;;;;;;24.92;8.35;;;8.60;99.90;;;;;;5066307;28;20425;-70
2022/11/23 11:00:13;;;;;;;28.70;8.52;;;8.60;99.90;;;;;;5054507;28;20037;-70
2022/11/23 11:02:56;;;;;;;23.92;8.00;;;8.70;99.90;;;;;;5067334;28;20116;-70
2022/11/23 11:05:47;;;;;;;27.33;8.50;;;8.70;99.90;;;;;;5064303;28;20051;-69
2022/11/23 11:08:16;;;;;;;30.85;7.80;;;8.70;99.90;;;;;;5067423;28;20044;-70
2022/11/23 11:10:55;;;;;;;28.38;9.07;;;8.70;99.90;;;;;;5067067;28;20103;-69
2022/11/23 11:13:26;;;;;;;23.67;8.50;;;8.80;99.90;;;;;;5063506;28;20057;-70
2022/11/23 11:16:03;;;;;;;32.53;9.60;;;8.80;99.90;;;;;;5067225;28;20052;-70
2022/11/23 11:18:36;;;;;;;38.35;9.55;;;8.80;99.90;;;;;;5067184;28;20413;-69
2022/11/23 11:21:16;;;;;;;21.45;8.93;;;8.90;99.90;;;;;;5067370;28;20072;-69
2022/11/23 11:23:51;;;;;;;31.95;7.65;;;8.90;99.90;;;;;;5065605;28;20139;-70
2022/11/23 11:26:25;;;;;;;27.58;9.93;;;8.90;99.90;;;;;;5061075;28;20043;-69
2022/11/23 11:28:56;;;;;;;25.00;8.13;;;9.00;99.90;;;;;;5066189;28;20068;-69
2022/11/23 11:31:47;;;;;;;26.63;7.82;;;9.20;99.90;;;;;;5064829;28;20102;-69
2022/11/23 11:34:19;;;;;;;28.67;7.35;;;9.20;99.90;;;;;;5049285;28;20068;-70
2022/11/23 11:37:06;;;;;;;23.00;7.10;;;9.30;99.90;;;;;;5058004;28;20502;-70
2022/11/23 11:39:45;;;;;;;16.75;6.10;;;9.40;99.90;;;;;;5060811;28;20048;-70
2022/11/23 11:42:29;;;;;;;26.98;7.28;;;9.40;99.90;;;;;;5061098;28;20669;-70
2022/11/23 11:44:57;;;;;;;34.15;6.90;;;9.50;99.90;;;;;;5068428;28;20435;-70
2022/11/23 11:47:35;;;;;;;26.60;6.47;;;9.60;99.90;;;;;;5070974;28;20052;-70
2022/11/23 11:50:14;;;;;;;17.50;5.82;;;9.70;99.90;;;;;;5070882;28;20116;-70
2022/11/23 11:52:42;;;;;;;26.15;7.88;;;9.70;99.90;;;;;;5061345;28;20127;-69
2022/11/23 11:55:19;;;;;;;16.90;6.53;;;9.80;99.90;;;;;;5070685;28;20270;-70
2022/11/23 11:57:50;;;;;;;19.40;5.55;;;9.90;99.90;;;;;;5070800;28;20036;-70
2022/11/23 12:00:18;;;;;;;16.77;5.80;;;9.90;99.90;;;;;;5069968;28;20106;-69
2022/11/23 12:03:05;;;;;;;25.13;6.85;;;10.00;99.90;;;;;;5071033;28;20116;-69
2022/11/23 12:05:49;;;;;;;25.15;6.15;;;10.00;99.90;;;;;;5070692;28;20525;-69
2022/11/23 12:08:34;;;;;;;13.40;5.93;;;10.10;99.90;;;;;;5070413;28;20145;-70
2022/11/23 12:11:04;;;;;;;19.67;6.78;;;10.20;99.90;;;;;;5065451;28;20079;-69
2022/11/23 12:13:35;;;;;;;25.00;6.40;;;10.30;99.90;;;;;;5071064;28;20044;-69
2022/11/23 12:16:28;;;;;;;20.83;6.80;;;10.20;99.90;;;;;;5062872;28;20044;-69
2022/11/23 12:19:33;;;;;;;17.92;5.57;;;10.30;99.90;;;;;;5066981;28;20052;-69
2022/11/23 12:22:23;;;;;;;19.05;6.53;;;10.30;99.90;;;;;;5070519;28;20764;-69
2022/11/23 12:25:03;;;;;;;17.67;6.00;;;10.30;99.90;;;;;;5059309;28;20171;-69
2022/11/23 12:27:56;;;;;;;25.20;6.95;;;10.40;99.90;;;;;;5069114;28;20071;-69
2022/11/23 12:30:45;;;;;;;15.98;5.25;;;10.40;99.90;;;;;;5070263;28;20041;-69
2022/11/23 12:33:55;;;;;;;14.13;4.75;;;10.50;99.90;;;;;;5057641;28;20041;-69
2022/11/23 12:36:43;;;;;;;25.50;5.70;;;10.40;99.90;;;;;;5073717;28;20650;-69
2022/11/23 12:39:09;;;;;;;;;;;10.50;99.90;;;;;;5070251;28;20167;-69
2022/11/23 12:41:34;;;;;;;18.02;5.97;;;10.50;99.90;;;;;;5070440;28;20003;-69
2022/11/23 12:44:33;;;;;;;23.63;5.28;;;10.50;99.90;;;;;;5070006;28;20052;-69
2022/11/23 12:47:21;;;;;;;20.90;6.70;;;10.40;99.90;;;;;;5070169;28;20076;-69
2022/11/23 12:49:52;;;;;;;32.00;6.82;;;10.40;99.90;;;;;;5064429;28;20398;-69
2022/11/23 12:52:43;;;;;;;9.25;4.22;;;10.40;99.90;;;;;;5070169;28;20087;-69